KEBS

Webster City Municipal Airport

Webster City, Iowa, USA
METAR KEBS 210635Z AUTO 09009KT 4SM BR OVC005 13/13 A3007 RMK AO2
Observed Flight Rules
May-21 @ 06:35 UTC (32 minutes ago) Instrument Flight Rules
Wind Visibility Clouds Conditions
90° at 9 knots 4 miles
  • Overcast at 500' AGL
  • Mist
Temperatures Readings
Current 13°C / 55°F
Dewpoint 13°C / 55°F
Humidity 100%
Altimeter 30.07" Hg
Pressure 1018 hPa
Elevation 342
METAR KEBS 210635Z AUTO 09009KT 4SM BR OVC005 13/13 A3007 RMK AO2
Observed Flight Rules
May-21 @ 06:35 UTC
(32 minutes ago)
IFR
Wind Visibility
90° at 9 knots 4 miles
Clouds
  • Overcast at 500' AGL
Conditions
  • Mist
Temperature Dewpoint
13°C / 55°F 13°C / 55°F
Humidity Altimeter Pressure
100% 30.07" Hg 1018 hPa